sensor_id;sensor_type;location;lat;lon;timestamp;pressure;altitude;pressure_sealevel;temperature;humidity
24230;BME280;12362;50.004;8.006;2022-12-18T00:00:42;102064.13;;;-5.32;100.00
24230;BME280;12362;50.004;8.006;2022-12-18T00:03:07;102075.88;;;-5.32;100.00
24230;BME280;12362;50.004;8.006;2022-12-18T00:05:33;102075.09;;;-5.31;100.00
24230;BME280;12362;50.004;8.006;2022-12-18T00:08:01;102075.16;;;-5.30;100.00
24230;BME280;12362;50.004;8.006;2022-12-18T00:10:52;102066.28;;;-5.40;100.00
24230;BME280;12362;50.004;8.006;2022-12-18T00:13:18;102069.47;;;-5.44;100.00
24230;BME280;12362;50.004;8.006;2022-12-18T00:15:43;102070.94;;;-5.49;100.00
24230;BME280;12362;50.004;8.006;2022-12-18T00:18:09;102067.22;;;-5.57;100.00
24230;BME280;12362;50.004;8.006;2022-12-18T00:20:36;102057.78;;;-5.61;100.00
24230;BME280;12362;50.004;8.006;2022-12-18T00:23:02;102068.69;;;-5.62;100.00
24230;BME280;12362;50.004;8.006;2022-12-18T00:25:27;102080.75;;;-5.57;100.00
24230;BME280;12362;50.004;8.006;2022-12-18T00:27:53;102086.00;;;-5.52;100.00
24230;BME280;12362;50.004;8.006;2022-12-18T00:30:18;102081.19;;;-5.46;100.00
24230;BME280;12362;50.004;8.006;2022-12-18T00:32:43;102076.78;;;-5.50;100.00
24230;BME280;12362;50.004;8.006;2022-12-18T00:35:09;102072.75;;;-5.47;100.00
24230;BME280;12362;50.004;8.006;2022-12-18T00:37:34;102073.53;;;-5.48;100.00
24230;BME280;12362;50.004;8.006;2022-12-18T00:40:00;102076.50;;;-5.58;100.00
24230;BME280;12362;50.004;8.006;2022-12-18T00:42:26;102074.75;;;-5.59;100.00
24230;BME280;12362;50.004;8.006;2022-12-18T00:45:10;102075.88;;;-5.52;100.00
24230;BME280;12362;50.004;8.006;2022-12-18T00:47:35;102076.69;;;-5.53;100.00
24230;BME280;12362;50.004;8.006;2022-12-18T00:50:01;102074.75;;;-5.59;100.00
24230;BME280;12362;50.004;8.006;2022-12-18T00:52:26;102083.75;;;-5.65;100.00
24230;BME280;12362;50.004;8.006;2022-12-18T00:54:51;102081.09;;;-5.68;100.00
24230;BME280;12362;50.004;8.006;2022-12-18T00:57:17;102083.63;;;-5.68;100.00
24230;BME280;12362;50.004;8.006;2022-12-18T00:59:42;102088.72;;;-5.67;100.00
24230;BME280;12362;50.004;8.006;2022-12-18T01:02:07;102083.47;;;-5.71;100.00
24230;BME280;12362;50.004;8.006;2022-12-18T01:04:33;102089.34;;;-5.72;100.00
24230;BME280;12362;50.004;8.006;2022-12-18T01:06:59;102090.25;;;-5.70;100.00
24230;BME280;12362;50.004;8.006;2022-12-18T01:09:28;102086.94;;;-5.69;100.00
24230;BME280;12362;50.004;8.006;2022-12-18T01:11:53;102081.69;;;-5.74;100.00
24230;BME280;12362;50.004;8.006;2022-12-18T01:14:19;102086.31;;;-5.84;100.00
24230;BME280;12362;50.004;8.006;2022-12-18T01:16:44;102085.47;;;-5.85;100.00
24230;BME280;12362;50.004;8.006;2022-12-18T01:19:10;102087.34;;;-5.81;100.00
24230;BME280;12362;50.004;8.006;2022-12-18T01:21:35;102082.00;;;-5.87;100.00
24230;BME280;12362;50.004;8.006;2022-12-18T01:24:01;102083.91;;;-5.81;100.00
24230;BME280;12362;50.004;8.006;2022-12-18T01:26:26;102096.38;;;-5.86;100.00
24230;BME280;12362;50.004;8.006;2022-12-18T01:28:55;102103.09;;;-5.86;100.00
24230;BME280;12362;50.004;8.006;2022-12-18T01:31:24;102103.16;;;-5.85;100.00
24230;BME280;12362;50.004;8.006;2022-12-18T01:33:51;102101.47;;;-5.84;100.00
24230;BME280;12362;50.004;8.006;2022-12-18T01:36:19;102115.31;;;-5.95;100.00
24230;BME280;12362;50.004;8.006;2022-12-18T01:38:45;102116.69;;;-6.02;100.00
24230;BME280;12362;50.004;8.006;2022-12-18T01:41:11;102117.44;;;-6.04;100.00
24230;BME280;12362;50.004;8.006;2022-12-18T01:43:56;102117.44;;;-6.04;100.00
24230;BME280;12362;50.004;8.006;2022-12-18T01:46:23;102119.47;;;-6.15;100.00
24230;BME280;12362;50.004;8.006;2022-12-18T01:48:59;102118.31;;;-6.21;100.00
24230;BME280;12362;50.004;8.006;2022-12-18T01:51:26;102111.63;;;-6.21;100.00
24230;BME280;12362;50.004;8.006;2022-12-18T01:53:52;102104.06;;;-6.21;100.00
24230;BME280;12362;50.004;8.006;2022-12-18T01:56:20;102103.41;;;-6.17;100.00
24230;BME280;12362;50.004;8.006;2022-12-18T01:58:52;102102.47;;;-6.19;100.00
24230;BME280;12362;50.004;8.006;2022-12-18T02:01:22;102107.38;;;-6.22;100.00
24230;BME280;12362;50.004;8.006;2022-12-18T02:03:48;102109.75;;;-6.25;100.00
24230;BME280;12362;50.004;8.006;2022-12-18T02:06:37;102104.84;;;-6.22;100.00
24230;BME280;12362;50.004;8.006;2022-12-18T02:09:12;102097.56;;;-6.33;100.00
24230;BME280;12362;50.004;8.006;2022-12-18T02:11:43;102090.94;;;-6.31;100.00
24230;BME280;12362;50.004;8.006;2022-12-18T02:14:17;102091.06;;;-6.28;100.00
24230;BME280;12362;50.004;8.006;2022-12-18T02:17:22;102096.44;;;-6.39;100.00
24230;BME280;12362;50.004;8.006;2022-12-18T02:20:14;102085.25;;;-6.44;100.00
24230;BME280;12362;50.004;8.006;2022-12-18T02:23:05;102087.00;;;-6.43;100.00
24230;BME280;12362;50.004;8.006;2022-12-18T02:25:52;102079.88;;;-6.33;100.00
24230;BME280;12362;50.004;8.006;2022-12-18T02:28:23;102083.94;;;-6.36;100.00
24230;BME280;12362;50.004;8.006;2022-12-18T02:30:51;102087.47;;;-6.33;100.00
24230;BME280;12362;50.004;8.006;2022-12-18T02:33:19;102090.25;;;-6.46;100.00
24230;BME280;12362;50.004;8.006;2022-12-18T02:35:45;102087.66;;;-6.65;100.00
24230;BME280;12362;50.004;8.006;2022-12-18T02:38:11;102089.75;;;-6.56;100.00
24230;BME280;12362;50.004;8.006;2022-12-18T02:40:41;102093.44;;;-6.50;100.00
24230;BME280;12362;50.004;8.006;2022-12-18T02:43:10;102092.03;;;-6.43;100.00
24230;BME280;12362;50.004;8.006;2022-12-18T02:45:46;102086.06;;;-6.45;100.00
24230;BME280;12362;50.004;8.006;2022-12-18T02:48:13;102087.72;;;-6.46;100.00
24230;BME280;12362;50.004;8.006;2022-12-18T02:50:50;102085.25;;;-6.44;100.00
24230;BME280;12362;50.004;8.006;2022-12-18T02:58:16;102081.75;;;-6.29;100.00
24230;BME280;12362;50.004;8.006;2022-12-18T03:00:53;102081.13;;;-6.25;100.00
24230;BME280;12362;50.004;8.006;2022-12-18T03:03:27;102081.91;;;-6.26;100.00
24230;BME280;12362;50.004;8.006;2022-12-18T03:06:16;102087.56;;;-6.31;100.00
24230;BME280;12362;50.004;8.006;2022-12-18T03:12:27;102080.53;;;-6.20;100.00
24230;BME280;12362;50.004;8.006;2022-12-18T03:17:34;102096.28;;;-6.25;100.00
24230;BME280;12362;50.004;8.006;2022-12-18T03:20:07;102080.31;;;-6.24;100.00
24230;BME280;12362;50.004;8.006;2022-12-18T03:22:35;102081.47;;;-6.18;100.00
24230;BME280;12362;50.004;8.006;2022-12-18T03:25:06;102079.53;;;-6.23;100.00
24230;BME280;12362;50.004;8.006;2022-12-18T03:27:36;102072.84;;;-6.21;100.00
24230;BME280;12362;50.004;8.006;2022-12-18T03:30:07;102066.75;;;-6.26;100.00
24230;BME280;12362;50.004;8.006;2022-12-18T03:32:40;102069.88;;;-6.31;100.00
24230;BME280;12362;50.004;8.006;2022-12-18T03:35:10;102074.03;;;-6.32;100.00
24230;BME280;12362;50.004;8.006;2022-12-18T03:37:37;102074.84;;;-6.33;100.00
24230;BME280;12362;50.004;8.006;2022-12-18T03:40:04;102074.91;;;-6.31;100.00
24230;BME280;12362;50.004;8.006;2022-12-18T03:42:39;102074.91;;;-6.31;100.00
24230;BME280;12362;50.004;8.006;2022-12-18T03:45:12;102073.34;;;-6.29;100.00
24230;BME280;12362;50.004;8.006;2022-12-18T03:48:01;102077.84;;;-6.41;100.00
24230;BME280;12362;50.004;8.006;2022-12-18T03:50:45;102082.16;;;-6.39;100.00
24230;BME280;12362;50.004;8.006;2022-12-18T03:55:37;102080.97;;;-6.64;100.00
24230;BME280;12362;50.004;8.006;2022-12-18T03:58:04;102080.38;;;-6.59;100.00
24230;BME280;12362;50.004;8.006;2022-12-18T04:00:32;102080.72;;;-6.69;100.00
24230;BME280;12362;50.004;8.006;2022-12-18T04:03:00;102076.03;;;-6.61;100.00
24230;BME280;12362;50.004;8.006;2022-12-18T04:05:28;102079.59;;;-6.58;100.00
24230;BME280;12362;50.004;8.006;2022-12-18T04:07:56;102081.97;;;-6.61;100.00
24230;BME280;12362;50.004;8.006;2022-12-18T04:10:21;102071.28;;;-6.55;100.00
24230;BME280;12362;50.004;8.006;2022-12-18T04:12:47;102067.22;;;-6.52;100.00
24230;BME280;12362;50.004;8.006;2022-12-18T04:15:13;102075.94;;;-6.45;100.00
24230;BME280;12362;50.004;8.006;2022-12-18T04:17:46;102065.72;;;-6.48;100.00
24230;BME280;12362;50.004;8.006;2022-12-18T04:20:12;102067.53;;;-6.46;100.00
24230;BME280;12362;50.004;8.006;2022-12-18T04:22:38;102069.31;;;-6.43;100.00
24230;BME280;12362;50.004;8.006;2022-12-18T04:25:03;102068.38;;;-6.45;100.00
24230;BME280;12362;50.004;8.006;2022-12-18T04:27:29;102067.03;;;-6.56;100.00
24230;BME280;12362;50.004;8.006;2022-12-18T04:29:54;102066.81;;;-6.61;100.00
24230;BME280;12362;50.004;8.006;2022-12-18T04:32:20;102068.25;;;-6.66;100.00
24230;BME280;12362;50.004;8.006;2022-12-18T04:34:45;102066.41;;;-6.70;100.00
24230;BME280;12362;50.004;8.006;2022-12-18T04:37:11;102059.09;;;-6.64;100.00
24230;BME280;12362;50.004;8.006;2022-12-18T04:39:39;102065.09;;;-6.62;100.00
24230;BME280;12362;50.004;8.006;2022-12-18T04:42:05;102069.50;;;-6.58;100.00
24230;BME280;12362;50.004;8.006;2022-12-18T04:44:30;102070.00;;;-6.65;100.00
24230;BME280;12362;50.004;8.006;2022-12-18T04:46:56;102069.13;;;-6.65;100.00
24230;BME280;12362;50.004;8.006;2022-12-18T04:49:21;102066.41;;;-6.70;100.00
24230;BME280;12362;50.004;8.006;2022-12-18T04:51:47;102064.31;;;-6.78;100.00
24230;BME280;12362;50.004;8.006;2022-12-18T04:54:12;102080.72;;;-7.04;100.00
24230;BME280;12362;50.004;8.006;2022-12-18T04:56:37;102095.59;;;-7.10;100.00
24230;BME280;12362;50.004;8.006;2022-12-18T04:59:03;102082.47;;;-7.03;100.00
24230;BME280;12362;50.004;8.006;2022-12-18T05:01:28;102089.25;;;-6.84;100.00
24230;BME280;12362;50.004;8.006;2022-12-18T05:03:54;102089.47;;;-6.80;100.00
24230;BME280;12362;50.004;8.006;2022-12-18T05:06:19;102092.34;;;-6.72;100.00
24230;BME280;12362;50.004;8.006;2022-12-18T05:08:45;102092.66;;;-6.66;100.00
24230;BME280;12362;50.004;8.006;2022-12-18T05:11:12;102088.66;;;-6.61;100.00
24230;BME280;12362;50.004;8.006;2022-12-18T05:13:41;102085.88;;;-6.67;100.00
24230;BME280;12362;50.004;8.006;2022-12-18T05:16:07;102078.66;;;-6.60;100.00
24230;BME280;12362;50.004;8.006;2022-12-18T05:18:32;102078.72;;;-6.58;100.00
24230;BME280;12362;50.004;8.006;2022-12-18T05:20:58;102080.84;;;-6.48;100.00
24230;BME280;12362;50.004;8.006;2022-12-18T05:23:24;102079.22;;;-6.48;100.00
24230;BME280;12362;50.004;8.006;2022-12-18T05:25:58;102074.28;;;-6.45;100.00
24230;BME280;12362;50.004;8.006;2022-12-18T05:28:25;102080.28;;;-6.43;100.00
24230;BME280;12362;50.004;8.006;2022-12-18T05:30:57;102075.31;;;-6.41;100.00
24230;BME280;12362;50.004;8.006;2022-12-18T05:33:25;102070.69;;;-6.50;100.00
24230;BME280;12362;50.004;8.006;2022-12-18T05:35:58;102072.28;;;-6.52;100.00
24230;BME280;12362;50.004;8.006;2022-12-18T05:38:27;102076.41;;;-6.54;100.00
24230;BME280;12362;50.004;8.006;2022-12-18T05:40:56;102072.06;;;-6.56;100.00
24230;BME280;12362;50.004;8.006;2022-12-18T05:43:23;102068.41;;;-6.63;100.00
24230;BME280;12362;50.004;8.006;2022-12-18T05:45:49;102065.47;;;-6.72;100.00
24230;BME280;12362;50.004;8.006;2022-12-18T05:48:16;102063.59;;;-6.76;100.00
24230;BME280;12362;50.004;8.006;2022-12-18T05:50:43;102061.13;;;-6.74;100.00
24230;BME280;12362;50.004;8.006;2022-12-18T05:53:10;102064.22;;;-6.80;100.00
24230;BME280;12362;50.004;8.006;2022-12-18T05:55:38;102070.31;;;-6.76;100.00
24230;BME280;12362;50.004;8.006;2022-12-18T05:58:07;102067.63;;;-6.79;100.00
24230;BME280;12362;50.004;8.006;2022-12-18T06:00:34;102076.41;;;-6.71;100.00
24230;BME280;12362;50.004;8.006;2022-12-18T06:03:00;102071.44;;;-6.70;100.00
24230;BME280;12362;50.004;8.006;2022-12-18T06:05:26;102079.88;;;-6.69;100.00
24230;BME280;12362;50.004;8.006;2022-12-18T06:07:52;102083.97;;;-6.71;100.00
24230;BME280;12362;50.004;8.006;2022-12-18T06:10:17;102085.50;;;-6.75;100.00
24230;BME280;12362;50.004;8.006;2022-12-18T06:12:43;102089.91;;;-6.71;100.00
24230;BME280;12362;50.004;8.006;2022-12-18T06:15:08;102091.66;;;-6.70;100.00
24230;BME280;12362;50.004;8.006;2022-12-18T06:17:34;102095.59;;;-6.75;100.00
24230;BME280;12362;50.004;8.006;2022-12-18T06:20:00;102094.75;;;-6.75;100.00
24230;BME280;12362;50.004;8.006;2022-12-18T06:22:26;102093.50;;;-6.66;100.00
24230;BME280;12362;50.004;8.006;2022-12-18T06:24:52;102102.97;;;-6.62;100.00
24230;BME280;12362;50.004;8.006;2022-12-18T06:27:17;102101.16;;;-6.64;100.00
24230;BME280;12362;50.004;8.006;2022-12-18T06:29:43;102110.53;;;-6.62;100.00
24230;BME280;12362;50.004;8.006;2022-12-18T06:32:08;102115.53;;;-6.63;100.00
24230;BME280;12362;50.004;8.006;2022-12-18T06:34:34;102118.84;;;-6.64;100.00
24230;BME280;12362;50.004;8.006;2022-12-18T06:37:02;102121.28;;;-6.66;100.00
24230;BME280;12362;50.004;8.006;2022-12-18T06:39:31;102125.25;;;-6.88;100.00
24230;BME280;12362;50.004;8.006;2022-12-18T06:41:56;102124.28;;;-7.08;100.00
24230;BME280;12362;50.004;8.006;2022-12-18T06:44:22;102128.75;;;-7.02;100.00
24230;BME280;12362;50.004;8.006;2022-12-18T06:46:47;102123.56;;;-7.05;100.00
24230;BME280;12362;50.004;8.006;2022-12-18T06:49:13;102128.06;;;-7.16;100.00
24230;BME280;12362;50.004;8.006;2022-12-18T06:51:38;102129.47;;;-7.05;100.00
24230;BME280;12362;50.004;8.006;2022-12-18T06:54:04;102127.47;;;-6.94;100.00
24230;BME280;12362;50.004;8.006;2022-12-18T06:56:29;102133.38;;;-6.94;100.00
24230;BME280;12362;50.004;8.006;2022-12-18T06:58:55;102138.50;;;-6.75;100.00
24230;BME280;12362;50.004;8.006;2022-12-18T07:01:21;102136.72;;;-6.77;100.00
24230;BME280;12362;50.004;8.006;2022-12-18T07:03:46;102127.84;;;-6.69;100.00
24230;BME280;12362;50.004;8.006;2022-12-18T07:06:17;102126.25;;;-6.67;100.00
24230;BME280;12362;50.004;8.006;2022-12-18T07:08:44;102124.53;;;-6.68;100.00
24230;BME280;12362;50.004;8.006;2022-12-18T07:11:09;102127.53;;;-6.93;100.00
24230;BME280;12362;50.004;8.006;2022-12-18T07:13:35;102133.16;;;-6.81;100.00
24230;BME280;12362;50.004;8.006;2022-12-18T07:16:20;102117.59;;;-6.72;100.00
24230;BME280;12362;50.004;8.006;2022-12-18T07:18:46;102123.53;;;-6.72;100.00
24230;BME280;12362;50.004;8.006;2022-12-18T07:21:16;102122.94;;;-6.66;100.00
24230;BME280;12362;50.004;8.006;2022-12-18T07:23:42;102122.53;;;-6.58;100.00
24230;BME280;12362;50.004;8.006;2022-12-18T07:26:12;102113.00;;;-6.63;100.00
24230;BME280;12362;50.004;8.006;2022-12-18T07:28:40;102123.94;;;-6.63;100.00
24230;BME280;12362;50.004;8.006;2022-12-18T07:31:10;102116.81;;;-6.71;100.00
24230;BME280;12362;50.004;8.006;2022-12-18T07:33:36;102121.09;;;-6.86;100.00
24230;BME280;12362;50.004;8.006;2022-12-18T07:36:06;102128.19;;;-6.97;100.00
24230;BME280;12362;50.004;8.006;2022-12-18T07:38:33;102142.38;;;-6.99;100.00
24230;BME280;12362;50.004;8.006;2022-12-18T07:41:01;102158.38;;;-6.98;100.00
24230;BME280;12362;50.004;8.006;2022-12-18T07:43:26;102158.53;;;-6.95;100.00
24230;BME280;12362;50.004;8.006;2022-12-18T07:45:52;102146.50;;;-6.83;100.00
24230;BME280;12362;50.004;8.006;2022-12-18T07:48:17;102148.03;;;-6.69;100.00
24230;BME280;12362;50.004;8.006;2022-12-18T07:50:43;102158.06;;;-6.71;100.00
24230;BME280;12362;50.004;8.006;2022-12-18T07:53:08;102167.56;;;-7.00;100.00
24230;BME280;12362;50.004;8.006;2022-12-18T07:55:34;102163.41;;;-6.98;100.00
24230;BME280;12362;50.004;8.006;2022-12-18T07:58:04;102157.97;;;-6.90;100.00
24230;BME280;12362;50.004;8.006;2022-12-18T08:00:30;102156.94;;;-6.93;100.00
24230;BME280;12362;50.004;8.006;2022-12-18T08:02:56;102158.91;;;-6.88;100.00
24230;BME280;12362;50.004;8.006;2022-12-18T08:05:22;102162.16;;;-6.90;100.00
24230;BME280;12362;50.004;8.006;2022-12-18T08:07:48;102161.97;;;-6.77;100.00
24230;BME280;12362;50.004;8.006;2022-12-18T08:10:13;102164.75;;;-6.71;100.00
24230;BME280;12362;50.004;8.006;2022-12-18T08:12:39;102167.44;;;-6.68;100.00
24230;BME280;12362;50.004;8.006;2022-12-18T08:15:05;102172.50;;;-6.68;100.00
24230;BME280;12362;50.004;8.006;2022-12-18T08:17:30;102168.66;;;-6.60;100.00
24230;BME280;12362;50.004;8.006;2022-12-18T08:19:56;102171.06;;;-6.63;100.00
24230;BME280;12362;50.004;8.006;2022-12-18T08:22:21;102172.72;;;-6.64;100.00
24230;BME280;12362;50.004;8.006;2022-12-18T08:24:47;102162.03;;;-6.58;100.00
24230;BME280;12362;50.004;8.006;2022-12-18T08:27:12;102160.72;;;-6.68;100.00
24230;BME280;12362;50.004;8.006;2022-12-18T08:29:37;102157.13;;;-6.73;100.00
24230;BME280;12362;50.004;8.006;2022-12-18T08:32:03;102158.06;;;-6.53;100.00
24230;BME280;12362;50.004;8.006;2022-12-18T08:34:29;102158.06;;;-6.53;100.00
24230;BME280;12362;50.004;8.006;2022-12-18T08:36:54;102156.13;;;-6.41;100.00
24230;BME280;12362;50.004;8.006;2022-12-18T08:39:19;102148.34;;;-6.46;100.00
24230;BME280;12362;50.004;8.006;2022-12-18T08:41:45;102137.50;;;-6.61;100.00
24230;BME280;12362;50.004;8.006;2022-12-18T08:44:30;102138.09;;;-6.49;100.00
24230;BME280;12362;50.004;8.006;2022-12-18T08:47:05;102130.00;;;-6.42;100.00
24230;BME280;12362;50.004;8.006;2022-12-18T08:49:32;102124.56;;;-6.32;100.00
24230;BME280;12362;50.004;8.006;2022-12-18T08:51:57;102127.97;;;-6.31;100.00
24230;BME280;12362;50.004;8.006;2022-12-18T08:54:23;102126.78;;;-6.21;100.00
24230;BME280;12362;50.004;8.006;2022-12-18T08:56:49;102126.25;;;-6.14;100.00
24230;BME280;12362;50.004;8.006;2022-12-18T08:59:15;102125.47;;;-6.13;100.00
24230;BME280;12362;50.004;8.006;2022-12-18T09:01:41;102136.66;;;-6.08;100.00
24230;BME280;12362;50.004;8.006;2022-12-18T09:04:08;102130.38;;;-5.98;100.00
24230;BME280;12362;50.004;8.006;2022-12-18T09:06:33;102129.41;;;-6.00;100.00
24230;BME280;12362;50.004;8.006;2022-12-18T09:08:59;102130.63;;;-5.92;100.00
24230;BME280;12362;50.004;8.006;2022-12-18T09:11:26;102137.00;;;-5.81;100.00
24230;BME280;12362;50.004;8.006;2022-12-18T09:13:53;102134.53;;;-5.80;100.00
24230;BME280;12362;50.004;8.006;2022-12-18T09:16:19;102132.22;;;-5.94;100.00
24230;BME280;12362;50.004;8.006;2022-12-18T09:18:45;102137.72;;;-6.03;100.00
24230;BME280;12362;50.004;8.006;2022-12-18T09:21:14;102135.47;;;-5.97;100.00
24230;BME280;12362;50.004;8.006;2022-12-18T09:23:40;102138.41;;;-5.88;100.00
24230;BME280;12362;50.004;8.006;2022-12-18T09:26:06;102141.03;;;-5.66;100.00
24230;BME280;12362;50.004;8.006;2022-12-18T09:28:32;102131.97;;;-5.42;100.00
24230;BME280;12362;50.004;8.006;2022-12-18T09:34:03;102136.84;;;-5.07;100.00
24230;BME280;12362;50.004;8.006;2022-12-18T09:36:31;102140.00;;;-4.92;100.00
24230;BME280;12362;50.004;8.006;2022-12-18T09:38:57;102134.13;;;-4.71;100.00
24230;BME280;12362;50.004;8.006;2022-12-18T09:47:36;102137.78;;;-4.64;100.00
24230;BME280;12362;50.004;8.006;2022-12-18T09:50:01;102135.47;;;-4.58;100.00
24230;BME280;12362;50.004;8.006;2022-12-18T09:52:39;102141.41;;;-4.58;100.00
24230;BME280;12362;50.004;8.006;2022-12-18T09:55:23;102130.66;;;-4.52;100.00
24230;BME280;12362;50.004;8.006;2022-12-18T09:57:53;102133.19;;;-4.52;100.00
24230;BME280;12362;50.004;8.006;2022-12-18T10:00:24;102136.69;;;-4.49;100.00
24230;BME280;12362;50.004;8.006;2022-12-18T10:02:59;102133.66;;;-4.41;100.00
24230;BME280;12362;50.004;8.006;2022-12-18T10:08:24;102129.19;;;-4.04;100.00
24230;BME280;12362;50.004;8.006;2022-12-18T10:10:53;102113.38;;;-3.97;100.00
24230;BME280;12362;50.004;8.006;2022-12-18T10:13:35;102104.78;;;-3.77;100.00
24230;BME280;12362;50.004;8.006;2022-12-18T10:16:13;102104.34;;;-3.89;100.00
24230;BME280;12362;50.004;8.006;2022-12-18T10:21:56;102095.50;;;-3.53;100.00
24230;BME280;12362;50.004;8.006;2022-12-18T10:30:38;102081.28;;;-3.73;100.00
24230;BME280;12362;50.004;8.006;2022-12-18T10:33:43;102086.63;;;-3.65;100.00
24230;BME280;12362;50.004;8.006;2022-12-18T10:36:09;102095.97;;;-3.64;100.00
24230;BME280;12362;50.004;8.006;2022-12-18T10:38:35;102091.47;;;-3.71;100.00
24230;BME280;12362;50.004;8.006;2022-12-18T10:44:20;102091.88;;;-3.60;100.00
24230;BME280;12362;50.004;8.006;2022-12-18T10:46:50;102096.41;;;-3.28;100.00
24230;BME280;12362;50.004;8.006;2022-12-18T10:49:22;102095.91;;;-3.18;100.00
24230;BME280;12362;50.004;8.006;2022-12-18T10:51:51;102089.78;;;-3.23;100.00
24230;BME280;12362;50.004;8.006;2022-12-18T10:57:36;102087.41;;;-3.18;100.00
24230;BME280;12362;50.004;8.006;2022-12-18T11:00:31;102088.53;;;-3.35;100.00
24230;BME280;12362;50.004;8.006;2022-12-18T11:02:57;102084.28;;;-3.11;100.00
24230;BME280;12362;50.004;8.006;2022-12-18T11:07:51;102097.63;;;-3.17;100.00
24230;BME280;12362;50.004;8.006;2022-12-18T11:10:20;102102.06;;;-3.35;100.00
24230;BME280;12362;50.004;8.006;2022-12-18T11:12:47;102091.13;;;-3.34;100.00
24230;BME280;12362;50.004;8.006;2022-12-18T11:15:27;102089.78;;;-3.48;100.00
24230;BME280;12362;50.004;8.006;2022-12-18T11:17:53;102095.66;;;-3.25;100.00
24230;BME280;12362;50.004;8.006;2022-12-18T11:20:34;102096.06;;;-3.13;100.00
24230;BME280;12362;50.004;8.006;2022-12-18T11:23:02;102093.63;;;-3.10;100.00
24230;BME280;12362;50.004;8.006;2022-12-18T11:25:29;102090.28;;;-3.09;100.00
24230;BME280;12362;50.004;8.006;2022-12-18T11:28:24;102089.38;;;-3.10;100.00
24230;BME280;12362;50.004;8.006;2022-12-18T11:30:48;102083.47;;;-3.10;100.00
24230;BME280;12362;50.004;8.006;2022-12-18T11:33:21;102083.34;;;-3.13;100.00
24230;BME280;12362;50.004;8.006;2022-12-18T11:35:52;102085.22;;;-3.08;100.00
24230;BME280;12362;50.004;8.006;2022-12-18T11:38:24;102083.09;;;-3.21;100.00
24230;BME280;12362;50.004;8.006;2022-12-18T11:41:34;102082.97;;;-3.49;100.00
24230;BME280;12362;50.004;8.006;2022-12-18T11:48:00;102095.03;;;-3.90;100.00
24230;BME280;12362;50.004;8.006;2022-12-18T11:53:02;102107.22;;;-4.03;100.00
24230;BME280;12362;50.004;8.006;2022-12-18T12:00:31;102084.19;;;-4.09;100.00
24230;BME280;12362;50.004;8.006;2022-12-18T12:03:06;102088.22;;;-4.14;100.00
24230;BME280;12362;50.004;8.006;2022-12-18T12:06:03;102082.00;;;-3.52;100.00
24230;BME280;12362;50.004;8.006;2022-12-18T12:08:49;102083.28;;;-3.64;100.00
24230;BME280;12362;50.004;8.006;2022-12-18T12:11:25;102086.59;;;-4.12;100.00
24230;BME280;12362;50.004;8.006;2022-12-18T12:20:18;102077.25;;;-3.90;100.00
24230;BME280;12362;50.004;8.006;2022-12-18T12:22:58;102062.97;;;-3.64;100.00
24230;BME280;12362;50.004;8.006;2022-12-18T12:28:16;102041.91;;;-3.12;100.00
24230;BME280;12362;50.004;8.006;2022-12-18T12:33:27;102033.38;;;-2.88;100.00
24230;BME280;12362;50.004;8.006;2022-12-18T12:39:06;102026.50;;;-2.64;100.00
24230;BME280;12362;50.004;8.006;2022-12-18T12:41:33;102028.59;;;-3.05;100.00
24230;BME280;12362;50.004;8.006;2022-12-18T12:44:24;102030.69;;;-2.92;100.00
24230;BME280;12362;50.004;8.006;2022-12-18T12:46:54;102017.31;;;-2.87;100.00
24230;BME280;12362;50.004;8.006;2022-12-18T12:49:23;102013.34;;;-2.79;100.00
24230;BME280;12362;50.004;8.006;2022-12-18T12:52:10;102008.56;;;-2.96;100.00
24230;BME280;12362;50.004;8.006;2022-12-18T12:54:38;102016.72;;;-2.80;100.00
24230;BME280;12362;50.004;8.006;2022-12-18T12:57:35;102015.41;;;-2.66;100.00
24230;BME280;12362;50.004;8.006;2022-12-18T13:00:11;102010.41;;;-2.65;100.00
24230;BME280;12362;50.004;8.006;2022-12-18T13:05:54;101997.72;;;-2.63;100.00
24230;BME280;12362;50.004;8.006;2022-12-18T13:08:25;102002.72;;;-2.66;100.00
24230;BME280;12362;50.004;8.006;2022-12-18T13:11:29;102000.28;;;-2.63;100.00
24230;BME280;12362;50.004;8.006;2022-12-18T13:19:50;101985.25;;;-2.83;100.00
24230;BME280;12362;50.004;8.006;2022-12-18T13:22:25;101983.25;;;-2.93;100.00
24230;BME280;12362;50.004;8.006;2022-12-18T13:24:53;101984.56;;;-3.06;100.00
24230;BME280;12362;50.004;8.006;2022-12-18T13:38:44;101977.63;;;-3.38;100.00
24230;BME280;12362;50.004;8.006;2022-12-18T13:41:27;101981.56;;;-3.46;100.00
24230;BME280;12362;50.004;8.006;2022-12-18T13:43:55;101986.72;;;-3.44;100.00
24230;BME280;12362;50.004;8.006;2022-12-18T13:46:43;101984.50;;;-3.34;100.00
24230;BME280;12362;50.004;8.006;2022-12-18T13:51:35;101978.72;;;-3.30;100.00
24230;BME280;12362;50.004;8.006;2022-12-18T13:54:06;101978.38;;;-3.14;100.00
24230;BME280;12362;50.004;8.006;2022-12-18T13:56:44;101973.22;;;-3.17;100.00
24230;BME280;12362;50.004;8.006;2022-12-18T14:01:52;101972.41;;;-3.16;100.00
24230;BME280;12362;50.004;8.006;2022-12-18T14:06:51;101972.44;;;-3.14;100.00
24230;BME280;12362;50.004;8.006;2022-12-18T14:09:25;101968.06;;;-3.18;100.00
24230;BME280;12362;50.004;8.006;2022-12-18T14:11:53;101977.56;;;-3.13;100.00
24230;BME280;12362;50.004;8.006;2022-12-18T14:14:45;101982.22;;;-3.26;100.00
24230;BME280;12362;50.004;8.006;2022-12-18T14:17:12;101973.34;;;-3.39;100.00
24230;BME280;12362;50.004;8.006;2022-12-18T14:19:44;101972.63;;;-3.35;100.00
24230;BME280;12362;50.004;8.006;2022-12-18T14:22:18;101973.19;;;-3.43;100.00
24230;BME280;12362;50.004;8.006;2022-12-18T14:24:46;101965.94;;;-3.58;100.00
24230;BME280;12362;50.004;8.006;2022-12-18T14:27:22;101968.63;;;-3.53;100.00
24230;BME280;12362;50.004;8.006;2022-12-18T14:29:47;101966.06;;;-3.55;100.00
24230;BME280;12362;50.004;8.006;2022-12-18T14:32:18;101972.91;;;-3.52;100.00